sensor_id;sensor_type;location;lat;lon;timestamp;P1;durP1;ratioP1;P2;durP2;ratioP2
11092;SDS011;5600;50.864;6.102;2023-05-10T00:02:35;90.93;;;14.70;;
11092;SDS011;5600;50.864;6.102;2023-05-10T00:05:36;94.37;;;16.17;;
11092;SDS011;5600;50.864;6.102;2023-05-10T00:08:37;61.07;;;14.43;;
11092;SDS011;5600;50.864;6.102;2023-05-10T00:11:37;65.13;;;13.27;;
11092;SDS011;5600;50.864;6.102;2023-05-10T00:14:38;97.20;;;14.20;;
11092;SDS011;5600;50.864;6.102;2023-05-10T00:17:39;81.70;;;13.57;;
11092;SDS011;5600;50.864;6.102;2023-05-10T00:20:40;65.67;;;12.53;;
11092;SDS011;5600;50.864;6.102;2023-05-10T00:23:41;76.70;;;12.40;;
11092;SDS011;5600;50.864;6.102;2023-05-10T00:26:42;86.43;;;13.03;;
11092;SDS011;5600;50.864;6.102;2023-05-10T00:29:43;89.83;;;13.70;;
11092;SDS011;5600;50.864;6.102;2023-05-10T00:32:44;79.33;;;12.13;;
11092;SDS011;5600;50.864;6.102;2023-05-10T00:35:45;91.30;;;14.47;;
11092;SDS011;5600;50.864;6.102;2023-05-10T00:38:46;84.13;;;13.97;;
11092;SDS011;5600;50.864;6.102;2023-05-10T00:41:46;91.03;;;14.83;;
11092;SDS011;5600;50.864;6.102;2023-05-10T00:44:47;90.20;;;14.80;;
11092;SDS011;5600;50.864;6.102;2023-05-10T00:47:49;84.90;;;15.07;;
11092;SDS011;5600;50.864;6.102;2023-05-10T00:50:51;90.30;;;15.03;;
11092;SDS011;5600;50.864;6.102;2023-05-10T00:53:52;115.77;;;16.57;;
11092;SDS011;5600;50.864;6.102;2023-05-10T00:56:53;97.13;;;16.00;;
11092;SDS011;5600;50.864;6.102;2023-05-10T00:59:54;113.27;;;17.33;;
11092;SDS011;5600;50.864;6.102;2023-05-10T01:02:55;96.30;;;15.53;;
11092;SDS011;5600;50.864;6.102;2023-05-10T01:05:56;81.17;;;16.23;;
11092;SDS011;5600;50.864;6.102;2023-05-10T01:08:58;96.67;;;15.90;;
11092;SDS011;5600;50.864;6.102;2023-05-10T01:11:59;98.30;;;15.83;;
11092;SDS011;5600;50.864;6.102;2023-05-10T01:15:00;85.93;;;14.93;;
11092;SDS011;5600;50.864;6.102;2023-05-10T01:18:01;97.97;;;16.10;;
11092;SDS011;5600;50.864;6.102;2023-05-10T01:24:46;65.07;;;13.53;;
11092;SDS011;5600;50.864;6.102;2023-05-10T01:28:08;91.70;;;15.07;;
11092;SDS011;5600;50.864;6.102;2023-05-10T01:31:28;85.57;;;14.90;;
11092;SDS011;5600;50.864;6.102;2023-05-10T01:34:35;69.57;;;14.10;;
11092;SDS011;5600;50.864;6.102;2023-05-10T01:37:42;78.17;;;14.23;;
11092;SDS011;5600;50.864;6.102;2023-05-10T01:47:42;133.43;;;17.43;;
11092;SDS011;5600;50.864;6.102;2023-05-10T01:50:44;53.00;;;13.43;;
11092;SDS011;5600;50.864;6.102;2023-05-10T01:53:46;61.73;;;14.20;;
11092;SDS011;5600;50.864;6.102;2023-05-10T01:56:52;85.23;;;15.80;;
11092;SDS011;5600;50.864;6.102;2023-05-10T01:59:59;91.70;;;14.80;;
11092;SDS011;5600;50.864;6.102;2023-05-10T02:03:14;70.90;;;13.30;;
11092;SDS011;5600;50.864;6.102;2023-05-10T02:06:18;87.67;;;14.23;;
11092;SDS011;5600;50.864;6.102;2023-05-10T02:09:21;90.80;;;14.17;;
11092;SDS011;5600;50.864;6.102;2023-05-10T02:12:24;89.07;;;13.93;;
11092;SDS011;5600;50.864;6.102;2023-05-10T02:15:27;77.97;;;13.47;;
11092;SDS011;5600;50.864;6.102;2023-05-10T02:18:29;80.40;;;14.03;;
11092;SDS011;5600;50.864;6.102;2023-05-10T02:21:32;82.77;;;14.07;;
11092;SDS011;5600;50.864;6.102;2023-05-10T02:24:34;81.47;;;13.37;;
11092;SDS011;5600;50.864;6.102;2023-05-10T02:27:36;84.43;;;13.13;;
11092;SDS011;5600;50.864;6.102;2023-05-10T02:30:37;402.53;;;27.67;;
11092;SDS011;5600;50.864;6.102;2023-05-10T02:33:38;85.60;;;13.17;;
11092;SDS011;5600;50.864;6.102;2023-05-10T02:36:40;87.17;;;13.73;;
11092;SDS011;5600;50.864;6.102;2023-05-10T02:39:42;71.10;;;12.90;;
11092;SDS011;5600;50.864;6.102;2023-05-10T02:42:45;70.03;;;12.83;;
11092;SDS011;5600;50.864;6.102;2023-05-10T02:45:48;77.47;;;13.77;;
11092;SDS011;5600;50.864;6.102;2023-05-10T02:48:50;73.23;;;14.83;;
11092;SDS011;5600;50.864;6.102;2023-05-10T02:51:51;89.80;;;15.43;;
11092;SDS011;5600;50.864;6.102;2023-05-10T02:54:58;90.27;;;15.77;;
11092;SDS011;5600;50.864;6.102;2023-05-10T02:58:02;120.57;;;16.37;;
11092;SDS011;5600;50.864;6.102;2023-05-10T03:01:03;131.03;;;17.07;;
11092;SDS011;5600;50.864;6.102;2023-05-10T03:04:04;115.67;;;16.57;;
11092;SDS011;5600;50.864;6.102;2023-05-10T03:07:06;87.50;;;15.47;;
11092;SDS011;5600;50.864;6.102;2023-05-10T03:10:07;84.87;;;15.73;;
11092;SDS011;5600;50.864;6.102;2023-05-10T03:16:46;102.13;;;16.70;;
11092;SDS011;5600;50.864;6.102;2023-05-10T03:19:58;99.80;;;16.80;;
11092;SDS011;5600;50.864;6.102;2023-05-10T03:23:07;107.00;;;17.13;;
11092;SDS011;5600;50.864;6.102;2023-05-10T03:26:23;79.33;;;16.10;;
11092;SDS011;5600;50.864;6.102;2023-05-10T03:29:31;92.70;;;16.37;;
11092;SDS011;5600;50.864;6.102;2023-05-10T03:32:32;85.87;;;16.77;;
11092;SDS011;5600;50.864;6.102;2023-05-10T03:35:35;95.40;;;16.70;;
11092;SDS011;5600;50.864;6.102;2023-05-10T03:38:36;85.37;;;15.13;;
11092;SDS011;5600;50.864;6.102;2023-05-10T03:41:37;95.93;;;15.67;;
11092;SDS011;5600;50.864;6.102;2023-05-10T03:44:39;89.00;;;14.93;;
11092;SDS011;5600;50.864;6.102;2023-05-10T03:47:40;139.57;;;16.87;;
11092;SDS011;5600;50.864;6.102;2023-05-10T03:50:41;66.27;;;13.87;;
11092;SDS011;5600;50.864;6.102;2023-05-10T03:53:43;73.90;;;13.97;;
11092;SDS011;5600;50.864;6.102;2023-05-10T03:56:43;74.43;;;12.73;;
11092;SDS011;5600;50.864;6.102;2023-05-10T03:59:45;84.87;;;14.77;;
11092;SDS011;5600;50.864;6.102;2023-05-10T04:02:45;74.10;;;13.47;;
11092;SDS011;5600;50.864;6.102;2023-05-10T04:05:58;74.77;;;12.37;;
11092;SDS011;5600;50.864;6.102;2023-05-10T04:09:02;91.17;;;13.30;;
11092;SDS011;5600;50.864;6.102;2023-05-10T04:12:04;78.47;;;12.87;;
11092;SDS011;5600;50.864;6.102;2023-05-10T04:15:05;94.73;;;14.03;;
11092;SDS011;5600;50.864;6.102;2023-05-10T04:18:06;87.40;;;12.70;;
11092;SDS011;5600;50.864;6.102;2023-05-10T04:21:11;90.17;;;13.20;;
11092;SDS011;5600;50.864;6.102;2023-05-10T04:24:13;93.50;;;13.23;;
11092;SDS011;5600;50.864;6.102;2023-05-10T04:27:14;74.97;;;13.07;;
11092;SDS011;5600;50.864;6.102;2023-05-10T04:30:14;85.47;;;12.40;;
11092;SDS011;5600;50.864;6.102;2023-05-10T04:33:15;81.17;;;13.00;;
11092;SDS011;5600;50.864;6.102;2023-05-10T04:36:16;74.47;;;14.30;;
11092;SDS011;5600;50.864;6.102;2023-05-10T04:39:17;83.10;;;13.97;;
11092;SDS011;5600;50.864;6.102;2023-05-10T04:42:18;75.40;;;13.93;;
11092;SDS011;5600;50.864;6.102;2023-05-10T04:45:18;74.57;;;14.70;;
11092;SDS011;5600;50.864;6.102;2023-05-10T04:48:20;82.43;;;14.30;;
11092;SDS011;5600;50.864;6.102;2023-05-10T04:51:20;61.07;;;13.33;;
11092;SDS011;5600;50.864;6.102;2023-05-10T04:54:21;108.83;;;16.23;;
11092;SDS011;5600;50.864;6.102;2023-05-10T04:57:22;91.43;;;16.13;;
11092;SDS011;5600;50.864;6.102;2023-05-10T05:00:23;82.73;;;15.40;;
11092;SDS011;5600;50.864;6.102;2023-05-10T05:03:24;84.77;;;16.20;;
11092;SDS011;5600;50.864;6.102;2023-05-10T05:06:25;109.73;;;16.47;;
11092;SDS011;5600;50.864;6.102;2023-05-10T05:09:27;87.53;;;15.47;;
11092;SDS011;5600;50.864;6.102;2023-05-10T05:12:28;98.03;;;16.63;;
11092;SDS011;5600;50.864;6.102;2023-05-10T05:15:29;84.23;;;15.70;;
11092;SDS011;5600;50.864;6.102;2023-05-10T05:18:30;90.47;;;16.07;;
11092;SDS011;5600;50.864;6.102;2023-05-10T05:21:31;95.50;;;16.17;;
11092;SDS011;5600;50.864;6.102;2023-05-10T05:24:36;81.73;;;14.70;;
11092;SDS011;5600;50.864;6.102;2023-05-10T05:27:40;97.60;;;15.77;;
11092;SDS011;5600;50.864;6.102;2023-05-10T05:30:40;88.80;;;14.97;;
11092;SDS011;5600;50.864;6.102;2023-05-10T05:33:41;83.47;;;14.73;;
11092;SDS011;5600;50.864;6.102;2023-05-10T05:36:42;85.23;;;15.33;;
11092;SDS011;5600;50.864;6.102;2023-05-10T05:39:44;96.73;;;16.03;;
11092;SDS011;5600;50.864;6.102;2023-05-10T05:42:44;96.63;;;14.90;;
11092;SDS011;5600;50.864;6.102;2023-05-10T05:45:45;125.60;;;16.53;;
11092;SDS011;5600;50.864;6.102;2023-05-10T05:48:46;121.27;;;15.50;;
11092;SDS011;5600;50.864;6.102;2023-05-10T05:51:48;122.50;;;16.67;;
11092;SDS011;5600;50.864;6.102;2023-05-10T05:54:50;79.47;;;14.00;;
11092;SDS011;5600;50.864;6.102;2023-05-10T05:57:52;92.90;;;14.67;;
11092;SDS011;5600;50.864;6.102;2023-05-10T06:00:52;106.00;;;14.23;;
11092;SDS011;5600;50.864;6.102;2023-05-10T06:03:53;120.67;;;14.90;;
11092;SDS011;5600;50.864;6.102;2023-05-10T06:06:54;139.90;;;16.30;;
11092;SDS011;5600;50.864;6.102;2023-05-10T06:09:55;114.43;;;13.07;;
11092;SDS011;5600;50.864;6.102;2023-05-10T06:12:56;103.13;;;12.27;;
11092;SDS011;5600;50.864;6.102;2023-05-10T06:15:56;76.87;;;11.00;;
11092;SDS011;5600;50.864;6.102;2023-05-10T06:18:57;105.53;;;11.80;;
11092;SDS011;5600;50.864;6.102;2023-05-10T06:21:58;102.30;;;11.33;;
11092;SDS011;5600;50.864;6.102;2023-05-10T06:24:59;125.03;;;10.90;;
11092;SDS011;5600;50.864;6.102;2023-05-10T06:27:59;124.13;;;10.83;;
11092;SDS011;5600;50.864;6.102;2023-05-10T06:31:00;119.63;;;11.30;;
11092;SDS011;5600;50.864;6.102;2023-05-10T06:34:02;105.47;;;11.23;;
11092;SDS011;5600;50.864;6.102;2023-05-10T06:37:02;90.80;;;10.90;;
11092;SDS011;5600;50.864;6.102;2023-05-10T06:40:04;91.70;;;9.87;;
11092;SDS011;5600;50.864;6.102;2023-05-10T06:43:06;88.57;;;10.27;;
11092;SDS011;5600;50.864;6.102;2023-05-10T06:46:06;78.43;;;9.63;;
11092;SDS011;5600;50.864;6.102;2023-05-10T06:49:07;100.80;;;11.27;;
11092;SDS011;5600;50.864;6.102;2023-05-10T06:52:08;94.97;;;11.00;;
11092;SDS011;5600;50.864;6.102;2023-05-10T06:55:09;60.67;;;9.10;;
11092;SDS011;5600;50.864;6.102;2023-05-10T06:58:10;75.00;;;10.43;;
11092;SDS011;5600;50.864;6.102;2023-05-10T07:01:11;143.77;;;12.43;;
11092;SDS011;5600;50.864;6.102;2023-05-10T07:04:12;132.27;;;12.10;;
11092;SDS011;5600;50.864;6.102;2023-05-10T07:07:14;80.93;;;9.30;;
11092;SDS011;5600;50.864;6.102;2023-05-10T07:10:14;136.77;;;11.87;;
11092;SDS011;5600;50.864;6.102;2023-05-10T07:13:15;126.20;;;11.87;;
11092;SDS011;5600;50.864;6.102;2023-05-10T07:16:16;70.80;;;9.20;;
11092;SDS011;5600;50.864;6.102;2023-05-10T07:19:17;178.10;;;14.00;;
11092;SDS011;5600;50.864;6.102;2023-05-10T07:22:18;116.13;;;11.27;;
11092;SDS011;5600;50.864;6.102;2023-05-10T07:25:19;87.47;;;10.63;;
11092;SDS011;5600;50.864;6.102;2023-05-10T07:28:20;98.60;;;11.50;;
11092;SDS011;5600;50.864;6.102;2023-05-10T07:31:22;129.57;;;14.03;;
11092;SDS011;5600;50.864;6.102;2023-05-10T07:34:23;120.23;;;14.43;;
11092;SDS011;5600;50.864;6.102;2023-05-10T07:37:24;86.13;;;14.50;;
11092;SDS011;5600;50.864;6.102;2023-05-10T07:40:24;133.53;;;17.30;;
11092;SDS011;5600;50.864;6.102;2023-05-10T07:43:25;100.37;;;17.07;;
11092;SDS011;5600;50.864;6.102;2023-05-10T07:46:26;79.90;;;15.47;;
11092;SDS011;5600;50.864;6.102;2023-05-10T07:49:28;140.10;;;18.70;;
11092;SDS011;5600;50.864;6.102;2023-05-10T07:52:29;107.83;;;18.33;;
11092;SDS011;5600;50.864;6.102;2023-05-10T07:55:30;90.70;;;16.77;;
11092;SDS011;5600;50.864;6.102;2023-05-10T07:58:31;143.17;;;20.30;;
11092;SDS011;5600;50.864;6.102;2023-05-10T08:01:32;105.83;;;18.43;;
11092;SDS011;5600;50.864;6.102;2023-05-10T08:04:34;96.67;;;17.63;;
11092;SDS011;5600;50.864;6.102;2023-05-10T08:07:35;118.80;;;18.97;;
11092;SDS011;5600;50.864;6.102;2023-05-10T08:10:36;142.37;;;20.23;;
11092;SDS011;5600;50.864;6.102;2023-05-10T08:13:37;101.27;;;18.70;;
11092;SDS011;5600;50.864;6.102;2023-05-10T08:16:38;102.50;;;19.17;;
11092;SDS011;5600;50.864;6.102;2023-05-10T08:19:39;118.67;;;19.37;;
11092;SDS011;5600;50.864;6.102;2023-05-10T08:22:39;100.10;;;18.77;;
11092;SDS011;5600;50.864;6.102;2023-05-10T08:25:41;100.97;;;18.30;;
11092;SDS011;5600;50.864;6.102;2023-05-10T08:28:41;148.50;;;20.20;;
11092;SDS011;5600;50.864;6.102;2023-05-10T08:31:43;107.17;;;18.73;;
11092;SDS011;5600;50.864;6.102;2023-05-10T08:34:44;81.20;;;17.47;;
11092;SDS011;5600;50.864;6.102;2023-05-10T08:37:44;142.23;;;18.37;;
11092;SDS011;5600;50.864;6.102;2023-05-10T08:40:45;143.57;;;16.60;;
11092;SDS011;5600;50.864;6.102;2023-05-10T08:43:49;96.40;;;13.37;;
11092;SDS011;5600;50.864;6.102;2023-05-10T08:46:50;123.03;;;12.83;;
11092;SDS011;5600;50.864;6.102;2023-05-10T08:49:54;125.30;;;12.27;;
11092;SDS011;5600;50.864;6.102;2023-05-10T08:52:55;131.73;;;12.43;;
11092;SDS011;5600;50.864;6.102;2023-05-10T08:56:02;97.17;;;10.53;;
11092;SDS011;5600;50.864;6.102;2023-05-10T08:59:04;163.53;;;12.67;;
11092;SDS011;5600;50.864;6.102;2023-05-10T09:02:05;163.83;;;12.37;;
11092;SDS011;5600;50.864;6.102;2023-05-10T09:05:06;93.00;;;8.73;;
11092;SDS011;5600;50.864;6.102;2023-05-10T09:08:08;100.27;;;9.43;;
11092;SDS011;5600;50.864;6.102;2023-05-10T09:11:09;153.83;;;11.60;;
11092;SDS011;5600;50.864;6.102;2023-05-10T09:14:11;121.33;;;10.33;;
11092;SDS011;5600;50.864;6.102;2023-05-10T09:17:13;76.77;;;7.87;;
11092;SDS011;5600;50.864;6.102;2023-05-10T09:20:14;86.60;;;8.40;;
11092;SDS011;5600;50.864;6.102;2023-05-10T09:23:17;109.47;;;9.03;;
11092;SDS011;5600;50.864;6.102;2023-05-10T09:26:21;111.87;;;9.47;;
11092;SDS011;5600;50.864;6.102;2023-05-10T09:29:23;107.20;;;9.20;;
11092;SDS011;5600;50.864;6.102;2023-05-10T09:32:38;98.13;;;8.97;;
11092;SDS011;5600;50.864;6.102;2023-05-10T09:35:42;83.27;;;8.33;;
11092;SDS011;5600;50.864;6.102;2023-05-10T09:38:47;142.93;;;10.30;;
11092;SDS011;5600;50.864;6.102;2023-05-10T09:41:49;140.57;;;10.27;;
11092;SDS011;5600;50.864;6.102;2023-05-10T09:44:50;119.47;;;9.40;;
11092;SDS011;5600;50.864;6.102;2023-05-10T09:47:51;139.17;;;10.37;;
11092;SDS011;5600;50.864;6.102;2023-05-10T09:50:56;111.03;;;9.47;;
11092;SDS011;5600;50.864;6.102;2023-05-10T09:54:11;145.23;;;10.43;;
11092;SDS011;5600;50.864;6.102;2023-05-10T09:57:20;139.20;;;10.10;;
11092;SDS011;5600;50.864;6.102;2023-05-10T10:00:22;103.17;;;8.40;;
11092;SDS011;5600;50.864;6.102;2023-05-10T10:03:23;91.10;;;8.00;;
11092;SDS011;5600;50.864;6.102;2023-05-10T10:06:24;79.70;;;7.10;;
11092;SDS011;5600;50.864;6.102;2023-05-10T10:09:25;138.07;;;10.33;;
11092;SDS011;5600;50.864;6.102;2023-05-10T10:12:26;104.83;;;8.53;;
11092;SDS011;5600;50.864;6.102;2023-05-10T10:15:28;75.23;;;6.90;;
11092;SDS011;5600;50.864;6.102;2023-05-10T10:18:30;100.40;;;7.80;;
11092;SDS011;5600;50.864;6.102;2023-05-10T10:21:31;110.33;;;8.20;;
11092;SDS011;5600;50.864;6.102;2023-05-10T10:24:32;67.33;;;6.43;;
11092;SDS011;5600;50.864;6.102;2023-05-10T10:30:53;82.47;;;7.07;;
11092;SDS011;5600;50.864;6.102;2023-05-10T10:34:00;71.23;;;6.17;;
11092;SDS011;5600;50.864;6.102;2023-05-10T10:37:05;102.07;;;7.73;;
11092;SDS011;5600;50.864;6.102;2023-05-10T10:40:28;146.77;;;9.50;;
11092;SDS011;5600;50.864;6.102;2023-05-10T10:43:28;71.53;;;6.57;;
11092;SDS011;5600;50.864;6.102;2023-05-10T10:46:29;151.83;;;9.80;;
11092;SDS011;5600;50.864;6.102;2023-05-10T10:49:32;98.40;;;7.57;;
11092;SDS011;5600;50.864;6.102;2023-05-10T10:55:35;112.53;;;7.70;;
11092;SDS011;5600;50.864;6.102;2023-05-10T10:58:49;92.87;;;7.00;;
11092;SDS011;5600;50.864;6.102;2023-05-10T11:01:53;141.73;;;9.17;;
11092;SDS011;5600;50.864;6.102;2023-05-10T11:04:54;119.83;;;7.93;;
11092;SDS011;5600;50.864;6.102;2023-05-10T11:07:57;120.97;;;7.90;;
11092;SDS011;5600;50.864;6.102;2023-05-10T11:14:03;154.83;;;9.30;;
11092;SDS011;5600;50.864;6.102;2023-05-10T11:17:23;101.30;;;7.03;;
11092;SDS011;5600;50.864;6.102;2023-05-10T11:20:28;158.63;;;9.02;;
11092;SDS011;5600;50.864;6.102;2023-05-10T11:26:40;72.55;;;5.50;;
11092;SDS011;5600;50.864;6.102;2023-05-10T11:29:41;95.00;;;6.57;;
11092;SDS011;5600;50.864;6.102;2023-05-10T11:32:43;71.90;;;5.60;;
11092;SDS011;5600;50.864;6.102;2023-05-10T11:35:44;69.38;;;5.63;;
11092;SDS011;5600;50.864;6.102;2023-05-10T11:38:46;73.15;;;6.03;;
11092;SDS011;5600;50.864;6.102;2023-05-10T11:41:48;92.67;;;6.37;;
11092;SDS011;5600;50.864;6.102;2023-05-10T11:44:50;74.22;;;6.38;;
11092;SDS011;5600;50.864;6.102;2023-05-10T11:47:51;104.10;;;7.93;;
11092;SDS011;5600;50.864;6.102;2023-05-10T11:50:52;75.80;;;7.18;;
11092;SDS011;5600;50.864;6.102;2023-05-10T11:53:55;128.03;;;9.60;;
11092;SDS011;5600;50.864;6.102;2023-05-10T11:56:57;107.97;;;8.77;;
11092;SDS011;5600;50.864;6.102;2023-05-10T11:59:57;74.88;;;7.30;;
11092;SDS011;5600;50.864;6.102;2023-05-10T12:02:59;76.75;;;7.47;;
11092;SDS011;5600;50.864;6.102;2023-05-10T12:06:01;80.10;;;8.25;;
11092;SDS011;5600;50.864;6.102;2023-05-10T12:09:05;93.03;;;8.27;;
11092;SDS011;5600;50.864;6.102;2023-05-10T12:12:07;86.90;;;8.35;;
11092;SDS011;5600;50.864;6.102;2023-05-10T12:15:19;97.68;;;8.95;;
11092;SDS011;5600;50.864;6.102;2023-05-10T12:18:22;72.85;;;7.40;;
11092;SDS011;5600;50.864;6.102;2023-05-10T12:21:25;78.30;;;7.93;;
11092;SDS011;5600;50.864;6.102;2023-05-10T12:24:28;104.45;;;8.27;;
11092;SDS011;5600;50.864;6.102;2023-05-10T12:27:31;47.58;;;5.93;;
11092;SDS011;5600;50.864;6.102;2023-05-10T12:30:32;68.80;;;6.40;;
11092;SDS011;5600;50.864;6.102;2023-05-10T12:33:35;86.00;;;7.65;;
11092;SDS011;5600;50.864;6.102;2023-05-10T12:36:38;76.05;;;7.07;;
11092;SDS011;5600;50.864;6.102;2023-05-10T12:39:40;48.60;;;5.50;;
11092;SDS011;5600;50.864;6.102;2023-05-10T12:42:42;56.10;;;5.38;;
11092;SDS011;5600;50.864;6.102;2023-05-10T12:45:46;103.53;;;8.20;;
11092;SDS011;5600;50.864;6.102;2023-05-10T12:48:48;69.82;;;6.72;;
11092;SDS011;5600;50.864;6.102;2023-05-10T12:51:54;89.95;;;7.28;;
11092;SDS011;5600;50.864;6.102;2023-05-10T12:54:55;63.33;;;6.30;;
11092;SDS011;5600;50.864;6.102;2023-05-10T12:57:56;60.75;;;6.13;;
11092;SDS011;5600;50.864;6.102;2023-05-10T13:00:57;76.30;;;6.95;;
11092;SDS011;5600;50.864;6.102;2023-05-10T13:03:59;71.40;;;6.85;;
11092;SDS011;5600;50.864;6.102;2023-05-10T13:07:01;89.65;;;7.60;;
11092;SDS011;5600;50.864;6.102;2023-05-10T13:10:02;103.35;;;8.10;;
11092;SDS011;5600;50.864;6.102;2023-05-10T13:13:03;103.53;;;8.45;;
11092;SDS011;5600;50.864;6.102;2023-05-10T13:16:04;88.47;;;7.70;;
11092;SDS011;5600;50.864;6.102;2023-05-10T13:19:05;120.28;;;8.88;;
11092;SDS011;5600;50.864;6.102;2023-05-10T13:22:05;107.30;;;8.05;;
11092;SDS011;5600;50.864;6.102;2023-05-10T13:25:07;82.45;;;7.43;;
11092;SDS011;5600;50.864;6.102;2023-05-10T13:28:08;77.75;;;7.15;;
11092;SDS011;5600;50.864;6.102;2023-05-10T13:31:08;90.57;;;7.63;;
11092;SDS011;5600;50.864;6.102;2023-05-10T13:34:09;84.65;;;7.68;;
11092;SDS011;5600;50.864;6.102;2023-05-10T13:37:10;70.57;;;6.18;;
11092;SDS011;5600;50.864;6.102;2023-05-10T13:40:11;111.45;;;8.52;;
11092;SDS011;5600;50.864;6.102;2023-05-10T13:43:13;82.78;;;7.95;;
11092;SDS011;5600;50.864;6.102;2023-05-10T13:46:14;75.40;;;7.15;;
11092;SDS011;5600;50.864;6.102;2023-05-10T13:49:15;65.80;;;6.28;;
11092;SDS011;5600;50.864;6.102;2023-05-10T13:52:15;84.00;;;7.93;;
11092;SDS011;5600;50.864;6.102;2023-05-10T13:55:16;99.70;;;7.35;;
11092;SDS011;5600;50.864;6.102;2023-05-10T13:58:18;68.95;;;5.70;;
11092;SDS011;5600;50.864;6.102;2023-05-10T14:01:19;79.65;;;6.18;;
11092;SDS011;5600;50.864;6.102;2023-05-10T14:04:20;89.28;;;7.07;;
11092;SDS011;5600;50.864;6.102;2023-05-10T14:07:21;56.72;;;5.50;;
11092;SDS011;5600;50.864;6.102;2023-05-10T14:10:22;62.83;;;6.05;;
11092;SDS011;5600;50.864;6.102;2023-05-10T14:13:23;81.80;;;6.57;;
11092;SDS011;5600;50.864;6.102;2023-05-10T14:16:25;75.05;;;6.20;;
11092;SDS011;5600;50.864;6.102;2023-05-10T14:19:27;61.67;;;5.15;;
11092;SDS011;5600;50.864;6.102;2023-05-10T14:22:27;73.88;;;5.70;;
11092;SDS011;5600;50.864;6.102;2023-05-10T14:25:28;77.63;;;6.22;;
11092;SDS011;5600;50.864;6.102;2023-05-10T14:28:29;110.13;;;7.03;;
11092;SDS011;5600;50.864;6.102;2023-05-10T14:31:30;79.47;;;6.03;;
11092;SDS011;5600;50.864;6.102;2023-05-10T14:34:31;69.82;;;5.47;;
11092;SDS011;5600;50.864;6.102;2023-05-10T14:37:32;79.82;;;5.88;;
11092;SDS011;5600;50.864;6.102;2023-05-10T14:40:33;103.68;;;6.65;;
11092;SDS011;5600;50.864;6.102;2023-05-10T14:43:34;70.80;;;5.18;;
11092;SDS011;5600;50.864;6.102;2023-05-10T14:46:36;64.40;;;5.07;;
11092;SDS011;5600;50.864;6.102;2023-05-10T14:49:37;53.33;;;4.00;;
11092;SDS011;5600;50.864;6.102;2023-05-10T14:52:38;65.45;;;4.65;;
11092;SDS011;5600;50.864;6.102;2023-05-10T14:55:39;67.00;;;5.20;;
11092;SDS011;5600;50.864;6.102;2023-05-10T14:58:40;66.40;;;4.82;;
11092;SDS011;5600;50.864;6.102;2023-05-10T15:01:41;73.30;;;5.40;;
11092;SDS011;5600;50.864;6.102;2023-05-10T15:04:42;54.13;;;4.50;;
11092;SDS011;5600;50.864;6.102;2023-05-10T15:07:43;74.07;;;5.45;;
11092;SDS011;5600;50.864;6.102;2023-05-10T15:10:43;116.53;;;7.47;;
11092;SDS011;5600;50.864;6.102;2023-05-10T15:13:44;68.85;;;5.60;;
11092;SDS011;5600;50.864;6.102;2023-05-10T15:16:45;49.88;;;4.53;;
11092;SDS011;5600;50.864;6.102;2023-05-10T15:19:46;48.92;;;4.65;;
11092;SDS011;5600;50.864;6.102;2023-05-10T15:22:46;67.85;;;5.40;;
11092;SDS011;5600;50.864;6.102;2023-05-10T15:25:47;72.30;;;5.53;;
11092;SDS011;5600;50.864;6.102;2023-05-10T15:28:49;72.45;;;5.45;;
11092;SDS011;5600;50.864;6.102;2023-05-10T15:31:50;66.18;;;5.20;;
11092;SDS011;5600;50.864;6.102;2023-05-10T15:34:51;74.00;;;5.72;;
11092;SDS011;5600;50.864;6.102;2023-05-10T15:37:52;80.72;;;5.63;;
11092;SDS011;5600;50.864;6.102;2023-05-10T15:40:55;83.82;;;6.28;;
11092;SDS011;5600;50.864;6.102;2023-05-10T15:43:57;93.65;;;6.75;;
11092;SDS011;5600;50.864;6.102;2023-05-10T15:47:01;101.30;;;6.72;;
11092;SDS011;5600;50.864;6.102;2023-05-10T15:50:06;101.60;;;6.78;;
11092;SDS011;5600;50.864;6.102;2023-05-10T15:53:07;107.93;;;6.82;;
11092;SDS011;5600;50.864;6.102;2023-05-10T15:56:08;311.08;;;15.50;;
11092;SDS011;5600;50.864;6.102;2023-05-10T15:59:09;76.93;;;5.50;;
11092;SDS011;5600;50.864;6.102;2023-05-10T16:02:12;175.02;;;9.65;;
11092;SDS011;5600;50.864;6.102;2023-05-10T16:05:18;80.57;;;5.15;;
11092;SDS011;5600;50.864;6.102;2023-05-10T16:08:19;121.72;;;7.18;;
11092;SDS011;5600;50.864;6.102;2023-05-10T16:11:22;104.00;;;6.55;;
11092;SDS011;5600;50.864;6.102;2023-05-10T16:14:23;177.27;;;9.52;;
11092;SDS011;5600;50.864;6.102;2023-05-10T16:17:24;151.23;;;8.70;;
11092;SDS011;5600;50.864;6.102;2023-05-10T16:20:25;88.50;;;5.60;;
11092;SDS011;5600;50.864;6.102;2023-05-10T16:23:27;113.28;;;6.85;;
11092;SDS011;5600;50.864;6.102;2023-05-10T16:26:28;133.05;;;7.50;;
11092;SDS011;5600;50.864;6.102;2023-05-10T16:29:29;144.93;;;8.20;;
11092;SDS011;5600;50.864;6.102;2023-05-10T16:32:31;46.83;;;3.65;;
11092;SDS011;5600;50.864;6.102;2023-05-10T16:35:31;121.70;;;6.93;;
11092;SDS011;5600;50.864;6.102;2023-05-10T16:38:33;150.20;;;8.00;;
11092;SDS011;5600;50.864;6.102;2023-05-10T16:41:34;90.35;;;5.78;;
11092;SDS011;5600;50.864;6.102;2023-05-10T16:44:35;82.68;;;5.05;;
11092;SDS011;5600;50.864;6.102;2023-05-10T16:47:36;154.57;;;8.25;;
11092;SDS011;5600;50.864;6.102;2023-05-10T16:50:41;225.50;;;10.90;;
11092;SDS011;5600;50.864;6.102;2023-05-10T16:53:49;103.18;;;5.78;;
11092;SDS011;5600;50.864;6.102;2023-05-10T16:56:50;88.47;;;5.15;;
11092;SDS011;5600;50.864;6.102;2023-05-10T16:59:51;97.88;;;5.80;;
11092;SDS011;5600;50.864;6.102;2023-05-10T17:02:53;130.98;;;7.10;;
11092;SDS011;5600;50.864;6.102;2023-05-10T17:05:54;81.78;;;5.20;;
11092;SDS011;5600;50.864;6.102;2023-05-10T17:08:55;79.85;;;5.20;;
11092;SDS011;5600;50.864;6.102;2023-05-10T17:11:56;139.15;;;7.28;;
11092;SDS011;5600;50.864;6.102;2023-05-10T17:14:57;117.38;;;6.43;;
11092;SDS011;5600;50.864;6.102;2023-05-10T17:17:58;85.22;;;4.95;;
11092;SDS011;5600;50.864;6.102;2023-05-10T17:20:59;136.50;;;7.47;;
11092;SDS011;5600;50.864;6.102;2023-05-10T17:24:01;132.45;;;7.20;;
11092;SDS011;5600;50.864;6.102;2023-05-10T17:27:01;198.18;;;9.90;;
11092;SDS011;5600;50.864;6.102;2023-05-10T17:30:11;106.32;;;5.72;;
11092;SDS011;5600;50.864;6.102;2023-05-10T17:33:12;128.38;;;6.75;;
11092;SDS011;5600;50.864;6.102;2023-05-10T17:36:13;140.85;;;7.82;;
11092;SDS011;5600;50.864;6.102;2023-05-10T17:39:14;97.03;;;5.72;;
11092;SDS011;5600;50.864;6.102;2023-05-10T17:42:15;97.15;;;5.68;;
11092;SDS011;5600;50.864;6.102;2023-05-10T17:45:18;134.93;;;7.03;;
11092;SDS011;5600;50.864;6.102;2023-05-10T17:48:19;258.83;;;13.18;;
11092;SDS011;5600;50.864;6.102;2023-05-10T17:51:21;275.05;;;13.52;;
11092;SDS011;5600;50.864;6.102;2023-05-10T17:54:24;113.90;;;6.32;;
11092;SDS011;5600;50.864;6.102;2023-05-10T17:57:26;109.85;;;6.10;;
11092;SDS011;5600;50.864;6.102;2023-05-10T18:00:27;162.43;;;8.30;;
11092;SDS011;5600;50.864;6.102;2023-05-10T18:03:28;75.93;;;5.13;;
11092;SDS011;5600;50.864;6.102;2023-05-10T18:06:28;123.68;;;7.28;;
11092;SDS011;5600;50.864;6.102;2023-05-10T18:09:29;112.07;;;6.43;;
11092;SDS011;5600;50.864;6.102;2023-05-10T18:12:33;88.78;;;5.32;;
11092;SDS011;5600;50.864;6.102;2023-05-10T18:15:33;112.32;;;6.55;;
11092;SDS011;5600;50.864;6.102;2023-05-10T18:18:35;55.67;;;3.88;;
11092;SDS011;5600;50.864;6.102;2023-05-10T18:21:37;63.28;;;4.63;;
11092;SDS011;5600;50.864;6.102;2023-05-10T18:24:38;55.08;;;3.95;;
11092;SDS011;5600;50.864;6.102;2023-05-10T18:27:39;65.43;;;4.18;;
11092;SDS011;5600;50.864;6.102;2023-05-10T18:30:40;61.08;;;4.00;;